Time;durP1;ratioP1;P1;durP2;ratioP2;P2;SDS_P1;SDS_P2;PMS_P1;PMS_P2;Temp;Humidity;BMP_temperature;BMP_pressure;BME280_temperature;BME280_humidity;BME280_pressure;Samples;Min_cycle;Max_cycle;Signal;HPM_P1;HPM_P2
2021/06/11 00:00:33;;;;;;;16.52;6.55;;;;;;;14.83;100.00;100062.09;1783762;80;20932;-38
2021/06/11 00:03:00;;;;;;;11.93;6.95;;;;;;;14.83;100.00;100068.16;1783578;79;21143;-38
2021/06/11 00:05:27;;;;;;;14.73;7.58;;;;;;;14.83;100.00;100071.20;1783456;80;20952;-38
2021/06/11 00:07:53;;;;;;;13.32;7.60;;;;;;;14.82;100.00;100070.38;1783520;80;21466;-38
2021/06/11 00:10:20;;;;;;;11.48;6.55;;;;;;;14.85;100.00;100067.64;1783489;80;21469;-38
2021/06/11 00:12:46;;;;;;;11.40;7.03;;;;;;;14.90;100.00;100075.23;1783794;80;20923;-38
2021/06/11 00:15:14;;;;;;;11.90;7.35;;;;;;;14.94;100.00;100076.35;1783651;80;20971;-39
2021/06/11 00:17:41;;;;;;;11.48;7.62;;;;;;;15.00;100.00;100073.95;1783687;80;21010;-39
2021/06/11 00:20:09;;;;;;;11.48;6.67;;;;;;;15.09;100.00;100072.71;1783669;80;21039;-38
2021/06/11 00:22:37;;;;;;;17.73;7.25;;;;;;;15.16;100.00;100079.34;1783663;80;20936;-38
2021/06/11 00:25:12;;;;;;;15.28;6.90;;;;;;;15.21;100.00;100086.50;1783802;80;22222;-38
2021/06/11 00:27:39;;;;;;;26.68;8.35;;;;;;;15.27;100.00;100083.23;1783663;80;21154;-39
2021/06/11 00:30:07;;;;;;;12.82;7.00;;;;;;;15.32;100.00;100086.03;1783544;80;20924;-38
2021/06/11 00:32:34;;;;;;;7.78;6.75;;;;;;;15.37;100.00;100079.31;1783663;80;21441;-39
2021/06/11 00:35:01;;;;;;;7.67;6.90;;;;;;;15.42;100.00;100082.56;1783597;80;21134;-39
2021/06/11 00:37:28;;;;;;;10.18;7.50;;;;;;;15.47;100.00;100084.50;1783870;80;20955;-38
2021/06/11 00:39:54;;;;;;;11.88;7.00;;;;;;;15.51;100.00;100083.44;1783642;80;21787;-38
2021/06/11 00:42:22;;;;;;;7.80;7.05;;;;;;;15.55;100.00;100084.16;1783783;80;20975;-39
2021/06/11 00:44:48;;;;;;;13.85;6.65;;;;;;;15.57;100.00;100080.19;1779136;80;21011;-38
2021/06/11 00:47:15;;;;;;;11.83;7.37;;;;;;;15.58;100.00;100074.06;1775499;80;20929;-39
2021/06/11 00:49:41;;;;;;;10.50;6.70;;;;;;;15.58;100.00;100064.45;1775832;80;21549;-39
2021/06/11 00:52:08;;;;;;;9.53;6.75;;;;;;;15.60;100.00;100063.92;1775626;80;21817;-39
2021/06/11 00:54:35;;;;;;;12.65;7.40;;;;;;;15.63;100.00;100058.56;1775439;80;20949;-38
2021/06/11 00:57:03;;;;;;;11.05;6.97;;;;;;;15.63;100.00;100061.17;1774929;80;21003;-38
2021/06/11 00:59:30;;;;;;;7.42;6.22;;;;;;;15.65;100.00;100065.03;1775080;80;20996;-39
2021/06/11 01:01:56;;;;;;;6.33;5.83;;;;;;;15.65;100.00;100068.94;1774970;80;20897;-38
2021/06/11 01:04:23;;;;;;;8.83;5.83;;;;;;;15.64;100.00;100081.13;1775076;80;21147;-39
2021/06/11 01:06:51;;;;;;;6.90;6.03;;;;;;;15.62;100.00;100075.13;1774932;80;20940;-38
2021/06/11 01:09:17;;;;;;;7.47;6.78;;;;;;;15.61;100.00;100073.44;1775361;80;20968;-39
2021/06/11 01:11:45;;;;;;;7.05;6.45;;;;;;;15.59;100.00;100075.75;1775035;80;20921;-39
2021/06/11 01:14:12;;;;;;;7.30;6.60;;;;;;;15.58;100.00;100076.67;1775200;80;21568;-40
2021/06/11 01:16:40;;;;;;;10.15;7.25;;;;;;;15.57;100.00;100074.97;1775069;80;20980;-38
2021/06/11 01:19:09;;;;;;;7.25;6.42;;;;;;;15.55;100.00;100075.03;1774949;80;20960;-39
2021/06/11 01:21:39;;;;;;;12.50;6.70;;;;;;;15.55;100.00;100072.90;1775103;80;20940;-40
2021/06/11 01:24:15;;;;;;;9.38;7.42;;;;;;;15.55;100.00;100077.64;1772878;80;21035;-39
2021/06/11 01:26:48;;;;;;;8.30;7.08;;;;;;;15.55;100.00;100078.11;1774833;80;20971;-39
2021/06/11 01:29:18;;;;;;;12.80;6.15;;;;;;;15.55;100.00;100082.86;1747073;80;21795;-38
2021/06/11 01:31:53;;;;;;;9.13;6.25;;;;;;;15.56;100.00;100080.63;1774875;80;20963;-39
2021/06/11 01:34:25;;;;;;;7.30;5.47;;;;;;;15.56;100.00;100079.80;1775234;80;20901;-38
2021/06/11 01:37:11;;;;;;;7.92;5.47;;;;;;;15.53;100.00;100079.47;1774907;80;20987;-39
2021/06/11 01:39:38;;;;;;;9.03;6.10;;;;;;;15.50;100.00;100089.57;1750613;80;20980;-39
2021/06/11 01:42:05;;;;;;;6.67;5.35;;;;;;;15.47;100.00;100084.97;1775031;80;21245;-38
2021/06/11 01:44:32;;;;;;;8.53;6.05;;;;;;;15.41;100.00;100082.17;1772596;80;21020;-38
2021/06/11 01:46:59;;;;;;;8.10;5.30;;;;;;;15.38;100.00;100079.70;1767756;80;22206;-39
2021/06/11 01:49:27;;;;;;;22.20;6.15;;;;;;;15.37;100.00;100075.41;1767637;80;21414;-38
2021/06/11 01:51:55;;;;;;;14.33;5.28;;;;;;;15.34;100.00;100089.41;1767695;80;20960;-39
2021/06/11 01:54:21;;;;;;;20.72;6.50;;;;;;;15.33;100.00;100086.42;1767531;81;21051;-39
2021/06/11 01:56:47;;;;;;;14.35;6.25;;;;;;;15.33;100.00;100085.11;1729583;81;21530;-38
2021/06/11 01:59:14;;;;;;;19.82;6.40;;;;;;;15.35;100.00;100085.06;1741859;81;21506;-38
2021/06/11 02:01:40;;;;;;;19.45;6.33;;;;;;;15.36;100.00;100088.89;1767690;80;21632;-38
2021/06/11 02:04:07;;;;;;;20.25;6.50;;;;;;;15.37;100.00;100093.66;1767503;80;20976;-38
2021/06/11 02:06:34;;;;;;;27.58;7.83;;;;;;;15.38;100.00;100101.40;1767556;80;21495;-37
2021/06/11 02:09:01;;;;;;;25.52;6.62;;;;;;;15.38;100.00;100101.40;1767445;81;20921;-38
2021/06/11 02:11:27;;;;;;;25.17;6.90;;;;;;;15.37;100.00;100102.79;1741698;81;20933;-38
2021/06/11 02:13:54;;;;;;;12.85;5.78;;;;;;;15.38;100.00;100099.27;1767598;81;20940;-39
2021/06/11 02:16:24;;;;;;;6.60;5.90;;;;;;;15.41;100.00;100095.66;1767706;80;21533;-39
2021/06/11 02:18:50;;;;;;;14.58;6.30;;;;;;;15.42;100.00;100092.99;1767678;80;21093;-38
2021/06/11 02:21:17;;;;;;;9.05;6.40;;;;;;;15.45;100.00;100098.06;1741630;81;21565;-38
2021/06/11 02:23:44;;;;;;;10.28;5.65;;;;;;;15.48;100.00;100095.80;1767628;80;21498;-39
2021/06/11 02:26:12;;;;;;;13.98;5.58;;;;;;;15.49;100.00;100096.18;1767777;80;20999;-39
2021/06/11 02:28:40;;;;;;;11.70;5.65;;;;;;;15.51;100.00;100095.17;1767808;81;20943;-39
2021/06/11 02:31:06;;;;;;;7.65;4.90;;;;;;;15.54;100.00;100098.59;1767672;80;21834;-38
2021/06/11 02:33:33;;;;;;;14.33;6.05;;;;;;;15.56;100.00;100098.89;1767498;80;20897;-39
2021/06/11 02:36:00;;;;;;;10.72;5.80;;;;;;;15.57;100.00;100094.06;1767632;81;20893;-39
2021/06/11 02:38:26;;;;;;;11.15;5.65;;;;;;;15.57;100.00;100091.45;1767674;80;20953;-39
2021/06/11 02:40:53;;;;;;;10.55;5.20;;;;;;;15.58;100.00;100091.84;1767629;81;21019;-38
2021/06/11 02:43:21;;;;;;;10.28;4.87;;;;;;;15.60;100.00;100100.92;1741793;81;21153;-38
2021/06/11 02:46:05;;;;;;;11.55;5.60;;;;;;;15.60;100.00;100095.70;1741600;81;21577;-38
2021/06/11 02:48:49;;;;;;;17.10;5.47;;;;;;;15.61;100.00;100093.48;1767625;81;20980;-38
2021/06/11 02:51:36;;;;;;;6.30;5.28;;;;;;;15.62;100.00;100101.22;1767858;81;20933;-39
2021/06/11 02:54:04;;;;;;;9.53;5.50;;;;;;;15.64;100.00;100096.78;1767452;80;21088;-38
2021/06/11 02:56:57;;;;;;;7.40;4.78;;;;;;;15.68;100.00;100097.49;1767820;80;21099;-38
2021/06/11 02:59:32;;;;;;;9.70;5.60;;;;;;;15.72;100.00;100097.73;1767519;81;21012;-39
2021/06/11 03:02:04;;;;;;;5.62;4.67;;;;;;;15.75;100.00;100098.90;1768156;80;20968;-38
2021/06/11 03:04:30;;;;;;;5.50;5.08;;;;;;;15.79;100.00;100090.04;1767494;80;20929;-38
2021/06/11 03:06:57;;;;;;;13.83;4.90;;;;;;;15.85;99.99;100093.28;1767786;80;20984;-39
2021/06/11 03:09:26;;;;;;;9.95;5.20;;;;;;;15.89;99.85;100094.85;1767694;81;21951;-37
2021/06/11 03:11:56;;;;;;;5.97;5.40;;;;;;;15.92;99.67;100099.48;1767473;81;21019;-38
2021/06/11 03:14:25;;;;;;;7.22;4.75;;;;;;;15.92;99.57;100098.18;1767576;81;21035;-39
2021/06/11 03:16:59;;;;;;;10.13;5.15;;;;;;;15.93;99.49;100089.43;1767550;80;20997;-37
2021/06/11 03:19:28;;;;;;;13.35;5.00;;;;;;;15.93;99.36;100088.13;1767563;80;20948;-38
2021/06/11 03:22:04;;;;;;;7.45;4.90;;;;;;;15.93;99.27;100092.48;1767849;80;21798;-38
2021/06/11 03:24:36;;;;;;;23.00;4.90;;;;;;;15.98;99.20;100096.19;1767603;80;20928;-38
2021/06/11 03:27:11;;;;;;;20.45;5.45;;;;;;;16.01;99.12;100100.80;1767921;80;20932;-39
2021/06/11 03:29:49;;;;;;;16.25;5.55;;;;;;;16.07;98.92;100099.22;1767521;81;20957;-39
2021/06/11 03:32:28;;;;;;;13.08;5.50;;;;;;;16.13;98.83;100102.45;1767852;80;20921;-38
2021/06/11 03:34:57;;;;;;;7.85;5.80;;;;;;;16.22;98.71;100107.23;1767624;81;21962;-38
2021/06/11 03:37:24;;;;;;;5.67;4.65;;;;;;;16.33;98.54;100104.11;1767853;81;20940;-38
2021/06/11 03:40:05;;;;;;;5.62;4.40;;;;;;;16.44;98.18;100108.81;1767579;80;21557;-38
2021/06/11 03:42:32;;;;;;;6.95;4.90;;;;;;;16.54;97.84;100102.20;1767550;81;20925;-38
2021/06/11 03:44:59;;;;;;;5.40;4.45;;;;;;;16.63;97.48;100101.77;1769249;80;20972;-38
2021/06/11 03:47:28;;;;;;;5.15;4.70;;;;;;;16.71;97.08;100101.41;1775034;80;21869;-39
2021/06/11 03:49:58;;;;;;;10.63;4.80;;;;;;;16.73;96.34;100107.39;1775039;80;20984;-38
2021/06/11 03:52:27;;;;;;;6.17;4.70;;;;;;;16.71;95.88;100104.45;1775299;80;21527;-38
2021/06/11 03:54:57;;;;;;;10.48;5.00;;;;;;;16.70;95.51;100106.69;1774821;80;20959;-39
2021/06/11 03:57:29;;;;;;;13.43;5.00;;;;;;;16.63;94.77;100102.22;1775200;80;21036;-38
2021/06/11 03:59:55;;;;;;;15.13;4.95;;;;;;;16.57;94.37;100102.53;1774690;80;21152;-37
2021/06/11 04:02:22;;;;;;;26.12;5.30;;;;;;;16.52;93.94;100104.91;1774855;80;21498;-38
2021/06/11 04:04:48;;;;;;;16.50;4.95;;;;;;;16.51;93.79;100103.67;1775045;80;21452;-38
2021/06/11 04:07:31;;;;;;;37.83;4.78;;;;;;;16.51;93.62;100109.75;1774859;80;21296;-37
2021/06/11 04:10:08;;;;;;;14.85;4.42;;;;;;;16.51;93.61;100103.22;1775082;80;21018;-38
2021/06/11 04:12:42;;;;;;;30.68;5.40;;;;;;;16.59;93.63;100110.69;1774521;80;21506;-37
2021/06/11 04:15:10;;;;;;;14.55;4.50;;;;;;;16.62;93.32;100110.53;1774834;80;21008;-39
2021/06/11 04:17:43;;;;;;;8.80;4.62;;;;;;;16.64;93.27;100112.61;1774868;80;21035;-38
2021/06/11 04:20:17;;;;;;;10.53;5.15;;;;;;;16.72;93.36;100117.46;1774906;80;20991;-39
2021/06/11 04:22:45;;;;;;;11.63;4.62;;;;;;;16.80;92.99;100113.17;1774951;80;21071;-39
2021/06/11 04:25:13;;;;;;;15.93;4.72;;;;;;;16.85;92.61;100120.31;1774920;80;21149;-39
2021/06/11 04:27:41;;;;;;;14.73;4.47;;;;;;;16.89;92.19;100119.23;1775053;80;21000;-39
2021/06/11 04:30:09;;;;;;;8.83;5.00;;;;;;;17.00;92.07;100121.34;1774881;80;20972;-39
2021/06/11 04:32:37;;;;;;;17.87;4.30;;;;;;;17.10;91.95;100117.80;1747288;80;21014;-39
2021/06/11 04:35:05;;;;;;;13.25;4.15;;;;;;;17.17;91.12;100125.70;1775032;80;20972;-39
2021/06/11 04:37:31;;;;;;;26.70;5.15;;;;;;;17.21;90.85;100124.61;1775298;80;21129;-39
2021/06/11 04:39:58;;;;;;;15.00;4.87;;;;;;;17.33;90.88;100124.44;1774912;80;20933;-39
2021/06/11 04:42:24;;;;;;;11.75;4.35;;;;;;;17.41;90.45;100122.73;1775397;80;20960;-40
2021/06/11 04:44:51;;;;;;;13.20;4.40;;;;;;;17.51;90.24;100127.86;1774664;80;20924;-39
2021/06/11 04:47:17;;;;;;;9.83;3.75;;;;;;;17.59;89.98;100128.77;1769555;81;20986;-39
2021/06/11 04:49:44;;;;;;;8.80;3.87;;;;;;;17.66;89.41;100137.14;1769722;80;21475;-39
2021/06/11 04:52:10;;;;;;;8.75;3.50;;;;;;;17.71;88.98;100132.50;1769776;81;22190;-39
2021/06/11 04:54:37;;;;;;;4.85;3.47;;;;;;;17.80;88.34;100132.48;1769775;81;21382;-39
2021/06/11 04:57:05;;;;;;;12.37;3.45;;;;;;;17.86;87.35;100136.06;1769586;80;20966;-39
2021/06/11 04:59:31;;;;;;;5.95;3.27;;;;;;;17.95;86.98;100141.27;1769839;81;20921;-39
2021/06/11 05:01:58;;;;;;;3.87;3.55;;;;;;;18.00;86.23;100137.93;1769478;81;21323;-39
2021/06/11 05:04:24;;;;;;;4.33;3.87;;;;;;;18.04;85.48;100139.95;1769808;80;21011;-39
2021/06/11 05:06:51;;;;;;;6.60;3.47;;;;;;;18.05;85.17;100142.48;1769749;80;20972;-39
2021/06/11 05:09:17;;;;;;;4.65;3.75;;;;;;;18.17;84.91;100140.12;1769531;81;21034;-39
2021/06/11 05:11:44;;;;;;;6.58;3.52;;;;;;;18.21;84.09;100141.64;1769640;81;21044;-39
2021/06/11 05:14:11;;;;;;;3.50;3.20;;;;;;;18.17;83.47;100137.52;1769539;81;21998;-39
2021/06/11 05:16:39;;;;;;;3.45;3.00;;;;;;;18.16;83.21;100134.52;1769580;80;20996;-39
2021/06/11 05:19:05;;;;;;;4.92;3.05;;;;;;;18.13;82.82;100134.69;1769759;81;21035;-40
2021/06/11 05:21:32;;;;;;;5.53;3.05;;;;;;;18.17;82.88;100144.89;1769612;81;21546;-40
2021/06/11 05:23:58;;;;;;;3.30;3.00;;;;;;;18.17;82.27;100140.12;1769508;81;21513;-39
2021/06/11 05:26:25;;;;;;;3.00;2.67;;;;;;;18.22;81.99;100146.81;1769752;81;21897;-38
2021/06/11 05:28:51;;;;;;;5.55;3.52;;;;;;;18.26;81.76;100149.25;1769705;81;21027;-40
2021/06/11 05:31:18;;;;;;;4.87;4.05;;;;;;;18.34;82.34;100146.59;1769618;81;21042;-38
2021/06/11 05:33:44;;;;;;;5.92;4.15;;;;;;;18.49;82.29;100146.64;1769491;80;20979;-39
2021/06/11 05:36:11;;;;;;;10.85;4.40;;;;;;;18.58;82.37;100145.28;1769606;80;21019;-39
2021/06/11 05:38:37;;;;;;;20.43;4.65;;;;;;;18.70;82.36;100140.66;1769429;80;21147;-40
2021/06/11 05:41:04;;;;;;;5.15;4.65;;;;;;;18.81;81.93;100149.19;1769405;81;20937;-40
2021/06/11 05:43:34;;;;;;;5.85;3.80;;;;;;;18.88;81.56;100151.86;1769558;81;21486;-40
2021/06/11 05:46:00;;;;;;;5.65;4.05;;;;;;;18.90;80.79;100149.98;1769719;80;20996;-39
2021/06/11 05:48:27;;;;;;;6.33;3.22;;;;;;;18.93;80.41;100151.11;1769580;81;20924;-40
2021/06/11 05:50:54;;;;;;;3.90;3.50;;;;;;;18.95;80.00;100156.28;1749860;81;21094;-40
2021/06/11 05:53:22;;;;;;;16.70;3.95;;;;;;;19.07;80.36;100158.66;1769476;80;20993;-39
2021/06/11 05:55:51;;;;;;;19.60;4.17;;;;;;;19.15;79.34;100163.00;1769543;80;21011;-38
2021/06/11 05:58:18;;;;;;;19.45;4.47;;;;;;;19.26;79.25;100161.51;1769593;80;21062;-39
2021/06/11 06:00:44;;;;;;;21.35;4.10;;;;;;;19.36;78.83;100162.66;1769503;81;21418;-38
2021/06/11 06:03:10;;;;;;;5.58;3.05;;;;;;;19.52;78.52;100163.41;1769685;80;21119;-41
2021/06/11 06:05:37;;;;;;;16.10;3.65;;;;;;;19.65;76.42;100161.36;1769452;80;21528;-40
2021/06/11 06:08:05;;;;;;;10.38;3.52;;;;;;;19.84;77.08;100161.55;1769657;81;20941;-39
2021/06/11 06:10:31;;;;;;;3.17;2.87;;;;;;;20.13;76.91;100152.34;1769379;81;21481;-40
2021/06/11 06:12:58;;;;;;;6.85;3.55;;;;;;;20.38;75.48;100156.84;1769870;81;20964;-41
2021/06/11 06:15:24;;;;;;;15.40;3.40;;;;;;;20.60;74.13;100162.89;1769538;80;21149;-40
2021/06/11 06:17:50;;;;;;;24.15;4.00;;;;;;;20.81;73.44;100163.74;1769768;80;20976;-39
2021/06/11 06:20:17;;;;;;;15.72;3.92;;;;;;;21.07;72.61;100153.27;1769409;81;20918;-39
2021/06/11 06:22:44;;;;;;;16.02;3.72;;;;;;;21.34;71.40;100157.59;1769441;80;20988;-40
2021/06/11 06:25:12;;;;;;;8.30;3.35;;;;;;;21.45;69.33;100156.39;1769463;81;20976;-40
2021/06/11 06:27:39;;;;;;;8.90;3.10;;;;;;;21.64;69.71;100156.45;1769498;81;22353;-40
2021/06/11 06:30:08;;;;;;;4.95;3.00;;;;;;;22.03;69.52;100155.08;1769520;81;20980;-39
2021/06/11 06:32:35;;;;;;;3.60;2.80;;;;;;;22.42;67.57;100154.45;1769445;81;20968;-40
2021/06/11 06:35:02;;;;;;;3.40;2.60;;;;;;;23.01;66.54;100146.19;1769719;81;20933;-40
2021/06/11 06:37:29;;;;;;;3.42;2.72;;;;;;;23.53;62.32;100157.19;1769448;81;20976;-41
2021/06/11 06:39:56;;;;;;;9.50;3.33;;;;;;;23.63;61.00;100154.67;1769635;81;21119;-40
2021/06/11 06:42:22;;;;;;;7.15;3.60;;;;;;;23.67;60.15;100153.97;1769355;81;21506;-39
2021/06/11 06:44:49;;;;;;;17.30;4.62;;;;;;;23.76;60.59;100153.72;1769600;80;21565;-40
2021/06/11 06:47:15;;;;;;;22.02;5.25;;;;;;;23.81;60.87;100162.13;1769282;81;20953;-40
2021/06/11 06:49:42;;;;;;;10.35;3.50;;;;;;;23.88;61.10;100159.84;1769367;80;21035;-40
2021/06/11 06:52:08;;;;;;;8.58;4.00;;;;;;;24.13;59.75;100163.19;1769464;81;21175;-40
2021/06/11 06:54:35;;;;;;;10.43;4.10;;;;;;;24.31;57.14;100157.72;1769443;80;20904;-39
2021/06/11 06:57:03;;;;;;;12.85;5.00;;;;;;;24.57;57.51;100156.06;1769377;80;20949;-40
2021/06/11 06:59:29;;;;;;;16.30;5.00;;;;;;;24.89;57.54;100160.53;1769439;80;21227;-41
2021/06/11 07:02:00;;;;;;;12.35;5.17;;;;;;;25.07;56.47;100152.84;1769818;81;20960;-40
2021/06/11 07:04:27;;;;;;;8.60;3.50;;;;;;;25.39;56.28;100156.37;1769537;81;21134;-40
2021/06/11 07:06:55;;;;;;;4.65;3.37;;;;;;;25.63;54.79;100159.19;1769418;80;21007;-39
2021/06/11 07:09:21;;;;;;;5.95;3.17;;;;;;;25.60;53.30;100165.61;1749821;81;21044;-39
2021/06/11 07:11:48;;;;;;;6.90;2.27;;;;;;;25.17;53.59;100155.55;1769756;81;20969;-38
2021/06/11 07:14:16;;;;;;;6.85;2.40;;;;;;;24.90;54.66;100159.56;1769648;80;21722;-39
2021/06/11 07:16:43;;;;;;;10.03;2.22;;;;;;;24.86;54.74;100159.44;1769304;81;21499;-40
2021/06/11 07:19:10;;;;;;;2.58;1.90;;;;;;;24.85;55.01;100159.59;1769286;81;20968;-39
2021/06/11 07:21:36;;;;;;;5.00;2.22;;;;;;;24.83;55.19;100161.02;1769358;81;21019;-40
2021/06/11 07:24:05;;;;;;;6.25;1.95;;;;;;;24.85;53.44;100166.20;1769463;81;21450;-40
2021/06/11 07:26:31;;;;;;;2.27;1.70;;;;;;;24.75;54.12;100163.48;1769430;81;21011;-42
2021/06/11 07:28:57;;;;;;;4.53;1.47;;;;;;;24.56;54.57;100158.35;1769429;81;21147;-42
2021/06/11 07:31:26;;;;;;;6.75;1.95;;;;;;;24.21;55.25;100172.16;1769372;81;20995;-40
2021/06/11 07:33:53;;;;;;;4.45;1.50;;;;;;;24.11;55.65;100160.66;1769061;81;20925;-40
2021/06/11 07:36:21;;;;;;;1.72;1.62;;;;;;;24.05;57.02;100158.52;1769461;80;21462;-40
2021/06/11 07:38:48;;;;;;;5.15;1.32;;;;;;;24.08;57.12;100163.05;1769458;81;21494;-39
2021/06/11 07:41:14;;;;;;;2.52;1.70;;;;;;;24.32;56.95;100160.72;1769488;80;21990;-40
2021/06/11 07:43:41;;;;;;;1.95;1.85;;;;;;;24.56;54.72;100156.20;1769462;80;21019;-40
2021/06/11 07:46:08;;;;;;;3.52;1.80;;;;;;;24.66;55.27;100153.14;1769348;80;21133;-41
2021/06/11 07:48:34;;;;;;;20.37;2.22;;;;;;;24.93;54.47;100151.83;1769435;81;20984;-40
2021/06/11 07:51:01;;;;;;;8.88;1.45;;;;;;;25.14;53.43;100149.20;1769413;81;21007;-41
2021/06/11 07:53:27;;;;;;;1.52;1.32;;;;;;;25.34;53.35;100150.13;1769497;81;21131;-41
2021/06/11 07:55:55;;;;;;;6.83;1.40;;;;;;;25.48;52.24;100148.97;1769378;81;22119;-40
2021/06/11 07:58:22;;;;;;;7.35;1.90;;;;;;;25.44;53.94;100144.88;1769352;80;22115;-42
2021/06/11 08:00:48;;;;;;;6.87;1.35;;;;;;;25.31;52.79;100153.52;1769317;81;20972;-41
2021/06/11 08:03:15;;;;;;;4.53;1.45;;;;;;;24.94;52.49;100155.69;1769518;80;21050;-41
2021/06/11 08:05:41;;;;;;;2.02;1.40;;;;;;;24.23;53.16;100153.54;1769519;81;21088;-41
2021/06/11 08:08:08;;;;;;;1.65;1.00;;;;;;;23.72;55.39;100154.44;1769533;81;20983;-39
2021/06/11 08:10:35;;;;;;;7.37;1.60;;;;;;;23.53;55.96;100159.01;1769534;80;20981;-41
2021/06/11 08:13:04;;;;;;;3.52;1.40;;;;;;;23.62;57.18;100154.31;1769614;81;21541;-39
2021/06/11 08:15:31;;;;;;;4.83;1.50;;;;;;;23.94;55.85;100155.37;1769860;81;20961;-40
2021/06/11 08:17:58;;;;;;;1.37;1.30;;;;;;;24.13;55.22;100156.59;1769561;80;21963;-40
2021/06/11 08:20:24;;;;;;;4.08;1.60;;;;;;;24.22;55.59;100154.01;1769893;81;21518;-40
2021/06/11 08:22:51;;;;;;;7.80;1.65;;;;;;;24.02;55.22;100155.63;1769640;81;21015;-40
2021/06/11 08:25:17;;;;;;;6.12;1.92;;;;;;;23.78;56.03;100153.94;1769530;81;20964;-40
2021/06/11 08:27:44;;;;;;;23.98;3.45;;;;;;;23.92;56.20;100150.20;1769396;80;20933;-40
2021/06/11 08:30:13;;;;;;;50.85;5.83;;;;;;;24.36;57.29;100148.09;1769614;80;21154;-40
2021/06/11 08:32:40;;;;;;;11.50;2.55;;;;;;;24.77;57.59;100145.67;1769432;80;20972;-41
2021/06/11 08:35:08;;;;;;;13.90;2.92;;;;;;;24.96;54.04;100152.89;1769522;80;21016;-41
2021/06/11 08:37:35;;;;;;;47.45;5.47;;;;;;;24.89;54.25;100145.98;1769441;81;20933;-41
2021/06/11 08:40:04;;;;;;;29.95;4.53;;;;;;;25.00;55.41;100137.10;1769539;81;20929;-40
2021/06/11 08:42:32;;;;;;;9.48;3.60;;;;;;;25.29;56.70;100147.52;1769642;80;20949;-40
2021/06/11 08:45:03;;;;;;;16.23;3.65;;;;;;;25.48;55.33;100146.79;1769383;80;20976;-40
2021/06/11 08:47:30;;;;;;;4.05;2.75;;;;;;;25.14;54.71;100150.98;1769528;81;21506;-40
2021/06/11 08:49:57;;;;;;;3.35;3.05;;;;;;;24.94;55.36;100143.78;1769456;81;20933;-39
2021/06/11 08:52:24;;;;;;;5.60;2.52;;;;;;;24.91;55.81;100142.72;1769602;81;20929;-40
2021/06/11 08:54:50;;;;;;;2.75;1.77;;;;;;;25.02;56.28;100134.34;1769503;81;21128;-41
2021/06/11 08:57:18;;;;;;;12.23;2.87;;;;;;;25.15;55.07;100136.78;1769437;80;21011;-41
2021/06/11 08:59:47;;;;;;;7.10;2.70;;;;;;;25.56;54.24;100131.56;1769416;80;21502;-41
2021/06/11 09:02:15;;;;;;;4.30;2.20;;;;;;;25.71;54.18;100120.95;1769558;81;21023;-41
2021/06/11 09:04:57;;;;;;;8.20;2.33;;;;;;;25.96;53.74;100120.11;1769567;80;20963;-41
2021/06/11 09:07:29;;;;;;;5.60;1.80;;;;;;;26.31;51.68;100126.73;1769601;81;21136;-41
2021/06/11 09:10:02;;;;;;;2.02;1.50;;;;;;;26.11;51.81;100124.02;1769820;80;20920;-40
2021/06/11 09:12:38;;;;;;;2.27;1.50;;;;;;;25.89;51.96;100120.28;1769611;81;21024;-40
2021/06/11 09:15:15;;;;;;;2.30;1.70;;;;;;;25.90;52.80;100122.81;1769774;80;21003;-39
2021/06/11 09:17:48;;;;;;;6.00;1.85;;;;;;;26.18;52.76;100122.20;1769099;80;20964;-41
2021/06/11 09:20:17;;;;;;;4.78;1.72;;;;;;;26.31;52.73;100112.14;1769794;81;21093;-41
2021/06/11 09:22:57;;;;;;;2.85;1.75;;;;;;;26.47;51.80;100112.08;1769460;81;21016;-41
2021/06/11 09:25:45;;;;;;;5.75;1.98;;;;;;;26.75;50.77;100112.19;1769712;81;21012;-40
2021/06/11 09:28:19;;;;;;;4.28;1.80;;;;;;;27.14;50.57;100112.11;1769465;80;20941;-40
2021/06/11 09:30:54;;;;;;;4.00;1.90;;;;;;;27.58;48.37;100114.70;1769171;80;21490;-42
2021/06/11 09:33:23;;;;;;;3.20;1.60;;;;;;;27.66;47.91;100108.98;1769590;81;21586;-40
2021/06/11 09:35:59;;;;;;;2.12;2.02;;;;;;;27.72;45.16;100112.88;1769367;81;21011;-40
2021/06/11 09:38:29;;;;;;;4.30;1.75;;;;;;;27.93;45.61;100100.64;1769448;81;20944;-40
2021/06/11 09:41:05;;;;;;;6.72;1.80;;;;;;;27.92;46.16;100100.81;1769749;80;20994;-40
2021/06/11 09:43:32;;;;;;;1.60;1.55;;;;;;;27.54;45.96;100096.39;1769821;80;20984;-40
2021/06/11 09:46:12;;;;;;;4.22;1.80;;;;;;;26.86;47.83;100097.95;1769806;81;21774;-40
2021/06/11 09:48:45;;;;;;;5.30;1.47;;;;;;;26.67;50.09;100097.82;1774328;80;20999;-39
2021/06/11 09:51:18;;;;;;;16.85;1.95;;;;;;;26.72;49.18;100101.86;1774861;80;21536;-40
2021/06/11 09:53:45;;;;;;;3.33;2.05;;;;;;;26.56;50.35;100092.65;1774932;80;21091;-42
2021/06/11 09:56:28;;;;;;;1.82;1.55;;;;;;;26.70;49.65;100098.01;1775008;80;20936;-41
2021/06/11 09:58:57;;;;;;;2.40;1.85;;;;;;;26.61;49.83;100091.73;1774825;80;21149;-42
2021/06/11 10:01:25;;;;;;;1.77;1.67;;;;;;;26.39;50.94;100100.33;1774937;80;21011;-41
2021/06/11 10:03:53;;;;;;;5.17;1.72;;;;;;;26.64;50.48;100097.25;1774821;80;20944;-41
2021/06/11 10:06:24;;;;;;;6.10;1.60;;;;;;;26.75;49.58;100105.55;1774979;80;20959;-40
2021/06/11 10:08:51;;;;;;;7.87;1.67;;;;;;;26.96;48.14;100106.23;1774874;80;21008;-39
2021/06/11 10:11:21;;;;;;;2.50;1.55;;;;;;;27.14;49.42;100117.42;1775197;80;21105;-40
2021/06/11 10:13:49;;;;;;;12.65;1.65;;;;;;;27.44;48.06;100111.53;1774845;80;20928;-40
2021/06/11 10:16:18;;;;;;;9.78;1.60;;;;;;;27.52;47.39;100108.99;1774879;80;20881;-40
2021/06/11 10:18:45;;;;;;;9.73;1.45;;;;;;;27.52;47.04;100111.65;1774862;80;20972;-41
2021/06/11 10:21:12;;;;;;;2.05;1.45;;;;;;;27.43;47.07;100104.55;1775168;80;21018;-41
2021/06/11 10:23:39;;;;;;;32.60;2.65;;;;;;;27.30;45.77;100102.70;1774834;80;21294;-40
2021/06/11 10:26:07;;;;;;;19.77;2.00;;;;;;;27.01;48.46;100099.15;1774978;80;21079;-40
2021/06/11 10:28:47;;;;;;;2.25;1.30;;;;;;;27.04;48.80;100098.03;1774937;80;21553;-41
2021/06/11 10:31:17;;;;;;;5.58;1.32;;;;;;;26.70;48.89;100095.86;1774992;80;20932;-40
2021/06/11 10:33:54;;;;;;;1.52;1.30;;;;;;;26.33;49.31;100086.30;1746694;80;20971;-39
2021/06/11 10:36:38;;;;;;;2.33;1.10;;;;;;;26.39;48.59;100091.55;1775021;80;21831;-41
2021/06/11 10:39:16;;;;;;;3.37;1.67;;;;;;;26.22;47.22;100091.77;1773546;80;20956;-41
2021/06/11 10:42:11;;;;;;;19.05;2.70;;;;;;;26.09;50.04;100093.33;1774873;80;21426;-40
2021/06/11 10:44:50;;;;;;;13.58;2.70;;;;;;;26.15;52.79;100090.12;1774857;80;20925;-40
2021/06/11 10:47:22;;;;;;;17.77;2.77;;;;;;;26.06;53.28;100082.50;1773694;80;20956;-41
2021/06/11 10:50:07;;;;;;;6.60;2.67;;;;;;;25.83;51.41;100085.40;1769465;80;21091;-41
2021/06/11 10:52:53;;;;;;;9.03;2.20;;;;;;;25.82;54.29;100075.77;1768623;80;21471;-40
2021/06/11 10:55:25;;;;;;;7.00;2.20;;;;;;;25.92;53.21;100081.59;1700205;84;20971;-41
2021/06/11 10:57:59;;;;;;;8.05;3.00;;;;;;;25.71;54.30;100076.38;1699787;84;21038;-40
2021/06/11 11:00:39;;;;;;;12.65;2.75;;;;;;;25.64;54.79;100078.25;1769445;81;21574;-40
2021/06/11 11:03:12;;;;;;;11.80;2.58;;;;;;;25.60;54.94;100079.97;1769409;81;21802;-40
2021/06/11 11:05:41;;;;;;;20.08;3.22;;;;;;;25.90;53.61;100075.59;1762071;80;20936;-40
2021/06/11 11:08:09;;;;;;;14.10;2.58;;;;;;;26.05;54.35;100070.22;1769376;81;21020;-40
2021/06/11 11:10:52;;;;;;;12.03;2.40;;;;;;;26.28;52.43;100066.00;1769212;81;20984;-40
2021/06/11 11:13:25;;;;;;;24.45;2.77;;;;;;;26.35;53.30;100063.13;1769670;81;20976;-40
2021/06/11 11:15:55;;;;;;;16.75;2.40;;;;;;;26.56;50.92;100071.42;1769413;81;21758;-40
2021/06/11 11:18:36;;;;;;;1.67;1.30;;;;;;;26.68;49.73;100064.99;1769467;80;20921;-41
2021/06/11 11:21:35;;;;;;;2.25;1.60;;;;;;;26.78;48.41;100074.27;1769335;81;21019;-40
2021/06/11 11:24:06;;;;;;;9.85;1.67;;;;;;;26.90;50.14;100080.75;1769611;81;20976;-39
2021/06/11 11:26:46;;;;;;;2.25;1.60;;;;;;;27.10;50.62;100090.34;1768734;80;20999;-40
2021/06/11 11:29:14;;;;;;;4.78;1.75;;;;;;;27.49;49.50;100086.67;1769602;81;21055;-41